Time;durP1;ratioP1;P1;durP2;ratioP2;P2;SDS_P1;SDS_P2;PMS_P1;PMS_P2;Temp;Humidity;BMP_temperature;BMP_pressure;BME280_temperature;BME280_humidity;BME280_pressure;Samples;Min_cycle;Max_cycle;Signal;HPM_P1;HPM_P2
2023/01/31 00:01:11;;;;;;;43.70;7.50;;;5.70;99.90;;;;;;5119199;28;20051;-73
2023/01/31 00:03:38;;;;;;;30.63;6.55;;;5.70;99.90;;;;;;5118383;28;20421;-73
2023/01/31 00:06:09;;;;;;;27.73;6.60;;;5.70;99.90;;;;;;5119027;28;20032;-74
2023/01/31 00:08:35;;;;;;;36.35;6.95;;;5.60;99.90;;;;;;5118865;28;20035;-74
2023/01/31 00:11:01;;;;;;;34.53;7.22;;;5.60;99.90;;;;;;5119329;28;20047;-73
2023/01/31 00:13:27;;;;;;;31.50;7.53;;;5.50;99.90;;;;;;5118977;28;20066;-74
2023/01/31 00:15:56;;;;;;;28.75;6.47;;;5.60;99.90;;;;;;5119198;28;20035;-73
2023/01/31 00:18:22;;;;;;;34.42;7.40;;;5.50;99.90;;;;;;5118872;28;20416;-73
2023/01/31 00:20:47;;;;;;;37.80;7.43;;;5.60;99.90;;;;;;5119095;28;20074;-73
2023/01/31 00:23:13;;;;;;;24.67;5.65;;;5.50;99.90;;;;;;5118782;28;20123;-73
2023/01/31 00:25:39;;;;;;;25.27;6.15;;;5.40;99.90;;;;;;5119037;28;20077;-73
2023/01/31 00:28:04;;;;;;;24.48;6.30;;;5.50;99.90;;;;;;5119000;28;20044;-73
2023/01/31 00:30:30;;;;;;;29.65;6.80;;;5.50;99.90;;;;;;5118919;28;20036;-73
2023/01/31 00:32:56;;;;;;;31.38;6.53;;;5.60;99.90;;;;;;5118868;28;20447;-73
2023/01/31 00:35:21;;;;;;;28.45;6.22;;;5.50;99.90;;;;;;5118465;28;20078;-73
2023/01/31 00:37:47;;;;;;;29.45;6.20;;;5.50;99.90;;;;;;5118401;28;20047;-73
2023/01/31 00:40:13;;;;;;;34.90;6.18;;;5.40;99.90;;;;;;5118454;28;20035;-73
2023/01/31 00:42:39;;;;;;;24.08;5.60;;;5.30;99.90;;;;;;5118674;28;20110;-73
2023/01/31 00:45:05;;;;;;;27.50;6.30;;;5.30;99.90;;;;;;5117862;28;20437;-73
2023/01/31 00:47:31;;;;;;;34.15;6.55;;;5.40;99.90;;;;;;5118073;28;20043;-73
2023/01/31 00:49:56;;;;;;;28.23;6.43;;;5.30;99.90;;;;;;5118537;28;20041;-73
2023/01/31 00:52:22;;;;;;;40.30;7.65;;;5.30;99.90;;;;;;5118505;28;20045;-73
2023/01/31 00:54:48;;;;;;;40.47;7.38;;;5.20;99.90;;;;;;5118012;28;20417;-73
2023/01/31 00:57:13;;;;;;;38.80;6.70;;;5.10;99.90;;;;;;5117345;28;20047;-73
2023/01/31 00:59:39;;;;;;;34.03;6.95;;;5.00;99.90;;;;;;5118318;28;20437;-73
2023/01/31 01:02:05;;;;;;;36.05;7.75;;;4.90;99.90;;;;;;5118027;28;20038;-73
2023/01/31 01:04:30;;;;;;;32.17;6.55;;;4.90;99.90;;;;;;5118281;27;20412;-73
2023/01/31 01:06:56;;;;;;;27.75;7.22;;;4.90;99.90;;;;;;5117822;28;20032;-73
2023/01/31 01:09:22;;;;;;;37.72;7.57;;;4.90;99.90;;;;;;5118137;28;20461;-73
2023/01/31 01:11:48;;;;;;;32.70;6.95;;;4.90;99.90;;;;;;5118100;28;20093;-73
2023/01/31 01:14:14;;;;;;;26.10;6.45;;;4.90;99.90;;;;;;5118001;28;20079;-73
2023/01/31 01:16:41;;;;;;;32.20;7.25;;;4.90;99.90;;;;;;5117719;28;20075;-73
2023/01/31 01:19:15;;;;;;;31.45;6.70;;;4.90;99.90;;;;;;5117636;28;20114;-73
2023/01/31 01:21:43;;;;;;;37.17;7.45;;;4.90;99.90;;;;;;5117976;28;20067;-73
2023/01/31 01:24:15;;;;;;;32.65;6.70;;;4.90;99.90;;;;;;5117925;28;20063;-73
2023/01/31 01:26:41;;;;;;;30.00;6.97;;;4.90;99.90;;;;;;5116905;28;20321;-73
2023/01/31 01:29:07;;;;;;;30.40;7.50;;;4.80;99.90;;;;;;5117805;27;20046;-73
2023/01/31 01:31:34;;;;;;;29.75;7.03;;;4.80;99.90;;;;;;5117770;28;20115;-73
2023/01/31 01:34:12;;;;;;;36.55;7.45;;;4.90;99.90;;;;;;5117346;28;20318;-73
2023/01/31 01:36:38;;;;;;;29.70;7.07;;;4.80;99.90;;;;;;5117294;28;20040;-74
2023/01/31 01:39:08;;;;;;;33.70;7.22;;;4.80;99.90;;;;;;5117658;28;20118;-73
2023/01/31 01:41:34;;;;;;;23.98;6.63;;;4.70;99.90;;;;;;5117608;28;20047;-73
2023/01/31 01:44:24;;;;;;;32.78;7.55;;;4.70;99.90;;;;;;5116294;28;20052;-73
2023/01/31 01:46:50;;;;;;;34.00;7.65;;;4.80;99.90;;;;;;5117204;28;20075;-73
2023/01/31 01:49:28;;;;;;;27.20;7.43;;;4.70;99.90;;;;;;5117474;28;20028;-73
2023/01/31 01:51:56;;;;;;;24.60;6.80;;;4.70;99.90;;;;;;5117545;28;20050;-73
2023/01/31 01:54:30;;;;;;;22.58;6.88;;;4.60;99.90;;;;;;5117361;28;20047;-73
2023/01/31 01:57:00;;;;;;;25.83;7.30;;;4.60;99.90;;;;;;5117304;28;20035;-73
2023/01/31 01:59:31;;;;;;;33.15;8.10;;;4.60;99.90;;;;;;5117372;28;20032;-73
2023/01/31 02:01:57;;;;;;;39.17;7.15;;;4.60;99.90;;;;;;5117454;28;20131;-73
2023/01/31 02:04:28;;;;;;;32.30;7.70;;;4.70;99.90;;;;;;5117338;28;20075;-73
2023/01/31 02:06:54;;;;;;;23.38;8.13;;;4.60;99.90;;;;;;5116993;28;20043;-73
2023/01/31 02:09:48;;;;;;;21.65;8.80;;;4.70;99.90;;;;;;5117286;28;20031;-73
2023/01/31 02:12:13;;;;;;;21.75;8.85;;;4.80;99.90;;;;;;5117358;28;20039;-73
2023/01/31 02:14:41;;;;;;;30.55;10.05;;;4.80;99.90;;;;;;5117143;28;20122;-73
2023/01/31 02:17:12;;;;;;;25.42;9.93;;;4.80;99.90;;;;;;5115921;28;20044;-73
2023/01/31 02:20:06;;;;;;;30.10;9.80;;;4.90;99.90;;;;;;5117257;28;20043;-73
2023/01/31 02:22:59;;;;;;;25.63;10.40;;;4.90;99.90;;;;;;5107431;28;20090;-73
2023/01/31 02:25:52;;;;;;;29.63;11.30;;;4.90;99.90;;;;;;5117188;28;20040;-73
2023/01/31 02:28:42;;;;;;;33.92;10.55;;;5.00;99.90;;;;;;5117157;28;20046;-73
2023/01/31 02:31:40;;;;;;;32.35;9.60;;;5.00;99.90;;;;;;5117156;28;20035;-73
2023/01/31 02:34:13;;;;;;;31.27;9.48;;;5.00;99.90;;;;;;5117021;28;20043;-73
2023/01/31 02:37:13;;;;;;;39.17;9.50;;;5.00;99.90;;;;;;5116716;28;20035;-74
2023/01/31 02:40:00;;;;;;;18.30;9.50;;;5.10;99.90;;;;;;5108256;28;20059;-73
2023/01/31 02:42:52;;;;;;;24.85;10.95;;;5.20;99.90;;;;;;5116066;28;20032;-74
2023/01/31 02:45:18;;;;;;;24.33;11.10;;;5.40;99.90;;;;;;5116897;28;20055;-74
2023/01/31 02:48:07;;;;;;;23.00;11.10;;;5.50;99.90;;;;;;5116914;28;20044;-73
2023/01/31 02:50:39;;;;;;;17.00;10.88;;;5.60;99.90;;;;;;5115836;28;20413;-73
2023/01/31 02:53:23;;;;;;;28.27;12.15;;;5.70;99.90;;;;;;5116931;28;20046;-73
2023/01/31 02:56:18;;;;;;;27.55;12.45;;;5.80;99.90;;;;;;5116795;28;20043;-73
2023/01/31 02:58:55;;;;;;;31.42;12.00;;;5.70;99.90;;;;;;5116859;28;20035;-74
2023/01/31 03:01:27;;;;;;;26.80;12.43;;;5.60;99.90;;;;;;5116882;28;20036;-74
2023/01/31 03:03:58;;;;;;;31.90;12.52;;;5.50;99.90;;;;;;5116816;28;20042;-73
2023/01/31 03:06:24;;;;;;;25.48;11.82;;;5.40;99.90;;;;;;5116034;28;20044;-74
2023/01/31 03:09:09;;;;;;;24.63;12.20;;;5.40;99.90;;;;;;5117598;28;20044;-73
2023/01/31 03:11:45;;;;;;;25.92;11.80;;;5.30;99.90;;;;;;5120502;28;20035;-73
2023/01/31 03:14:17;;;;;;;;;;;5.20;99.90;;;;;;5120940;28;20047;-73
2023/01/31 03:19:51;;;;;;;23.25;11.90;;;5.30;99.90;;;;;;5120387;28;20050;-73
2023/01/31 03:22:25;;;;;;;27.30;12.75;;;5.30;99.90;;;;;;5120311;28;20100;-73
2023/01/31 03:24:52;;;;;;;26.30;12.57;;;5.40;99.90;;;;;;5120258;28;20075;-73
2023/01/31 03:27:19;;;;;;;26.02;12.88;;;5.30;99.90;;;;;;5120171;28;20106;-74
2023/01/31 03:29:46;;;;;;;28.27;13.43;;;5.40;99.90;;;;;;5120117;28;20111;-73
2023/01/31 03:32:14;;;;;;;26.60;13.10;;;5.50;99.90;;;;;;5120072;28;20039;-73
2023/01/31 03:34:40;;;;;;;30.52;13.75;;;5.40;99.90;;;;;;5118779;28;20039;-73
2023/01/31 03:37:19;;;;;;;29.88;14.38;;;5.30;99.90;;;;;;5119275;28;20036;-73
2023/01/31 03:40:09;;;;;;;23.98;12.80;;;5.40;99.90;;;;;;5119669;28;20421;-73
2023/01/31 03:43:01;;;;;;;22.55;13.38;;;5.40;99.90;;;;;;5119849;28;20102;-73
2023/01/31 03:45:40;;;;;;;18.52;13.02;;;5.30;99.90;;;;;;5119864;28;20134;-73
2023/01/31 03:48:13;;;;;;;28.25;14.45;;;5.30;99.90;;;;;;5119834;28;20051;-73
2023/01/31 03:50:48;;;;;;;21.20;13.48;;;5.30;99.90;;;;;;5119538;28;20424;-73
2023/01/31 03:53:26;;;;;;;26.80;14.48;;;5.20;99.90;;;;;;5119725;28;20031;-73
2023/01/31 03:56:16;;;;;;;22.10;14.20;;;5.30;99.90;;;;;;5119340;28;20489;-73
2023/01/31 03:58:46;;;;;;;33.72;15.07;;;5.40;99.90;;;;;;5119611;28;20051;-73
2023/01/31 04:01:14;;;;;;;23.52;14.40;;;5.30;99.90;;;;;;5119545;28;20040;-73
2023/01/31 04:03:44;;;;;;;37.15;15.10;;;5.30;99.90;;;;;;5119509;28;20043;-73
2023/01/31 04:06:11;;;;;;;22.52;14.35;;;5.40;99.90;;;;;;5119226;27;20059;-73
2023/01/31 04:08:37;;;;;;;27.60;14.27;;;5.40;99.90;;;;;;5118994;28;20515;-73
2023/01/31 04:11:10;;;;;;;24.80;14.43;;;5.40;99.90;;;;;;5118835;28;20079;-74
2023/01/31 04:13:36;;;;;;;40.80;16.13;;;5.50;99.90;;;;;;5119210;28;20043;-73
2023/01/31 04:16:02;;;;;;;29.55;15.63;;;5.50;99.90;;;;;;5118984;28;20337;-73
2023/01/31 04:18:27;;;;;;;28.40;16.13;;;5.50;99.90;;;;;;5118707;28;20401;-73
2023/01/31 04:20:53;;;;;;;36.00;15.00;;;5.60;99.90;;;;;;5118228;27;20036;-73
2023/01/31 04:23:19;;;;;;;29.05;15.20;;;5.60;99.90;;;;;;5119104;28;20040;-73
2023/01/31 04:25:45;;;;;;;27.48;16.17;;;5.60;99.90;;;;;;5119057;28;20039;-73
2023/01/31 04:28:11;;;;;;;29.00;16.92;;;5.60;99.90;;;;;;5118688;28;20043;-73
2023/01/31 04:30:36;;;;;;;30.15;18.52;;;5.60;99.90;;;;;;5118934;28;20042;-73
2023/01/31 04:33:02;;;;;;;53.85;20.73;;;5.80;99.90;;;;;;5118922;28;20044;-74
2023/01/31 04:35:28;;;;;;;30.98;18.77;;;5.80;99.90;;;;;;5118773;28;20416;-73
2023/01/31 04:37:54;;;;;;;44.30;21.08;;;5.80;99.90;;;;;;5118172;28;20040;-74
2023/01/31 04:40:19;;;;;;;38.97;19.83;;;5.90;99.90;;;;;;5118417;28;20036;-73
2023/01/31 04:42:45;;;;;;;38.78;21.38;;;5.90;99.90;;;;;;5119104;28;20039;-73
2023/01/31 04:45:11;;;;;;;35.30;21.15;;;5.80;99.90;;;;;;5118197;28;20071;-73
2023/01/31 04:47:37;;;;;;;35.80;21.33;;;5.90;99.90;;;;;;5118605;28;20490;-73
2023/01/31 04:50:03;;;;;;;34.05;20.15;;;5.90;99.90;;;;;;5118587;28;20327;-73
2023/01/31 04:52:28;;;;;;;42.03;21.52;;;5.90;99.90;;;;;;5118531;28;20039;-73
2023/01/31 04:54:54;;;;;;;37.58;22.80;;;6.00;99.90;;;;;;5118074;28;20051;-73
2023/01/31 04:57:19;;;;;;;41.65;25.15;;;6.00;99.90;;;;;;5117438;28;20035;-73
2023/01/31 04:59:45;;;;;;;43.33;24.88;;;6.10;99.90;;;;;;5118417;28;20024;-73
2023/01/31 05:02:13;;;;;;;41.90;26.10;;;6.10;99.90;;;;;;5117993;28;20144;-73
2023/01/31 05:04:39;;;;;;;39.83;24.92;;;6.10;99.90;;;;;;5118258;28;20050;-73
2023/01/31 05:07:05;;;;;;;45.25;25.40;;;6.10;99.90;;;;;;5116460;28;20039;-74
2023/01/31 05:09:30;;;;;;;39.47;25.13;;;6.10;99.90;;;;;;5118205;28;20132;-74
2023/01/31 05:11:56;;;;;;;32.40;25.17;;;6.10;99.90;;;;;;5118178;28;20058;-73
2023/01/31 05:14:22;;;;;;;41.45;24.92;;;6.10;99.90;;;;;;5117733;28;20165;-73
2023/01/31 05:16:47;;;;;;;41.17;25.55;;;6.10;99.90;;;;;;5118004;28;20044;-74
2023/01/31 05:19:14;;;;;;;38.65;26.35;;;6.10;99.90;;;;;;5117678;28;20464;-73
2023/01/31 05:21:57;;;;;;;40.22;27.77;;;6.10;99.90;;;;;;5117990;28;20119;-73
2023/01/31 05:24:25;;;;;;;44.97;28.17;;;6.10;99.90;;;;;;5117661;28;20082;-73
2023/01/31 05:26:55;;;;;;;50.13;28.25;;;6.20;99.90;;;;;;5117876;28;20035;-73
2023/01/31 05:29:21;;;;;;;40.72;26.95;;;6.10;99.90;;;;;;5100384;28;20332;-73
2023/01/31 05:31:53;;;;;;;43.30;25.73;;;6.10;99.90;;;;;;5117558;28;20040;-73
2023/01/31 05:34:19;;;;;;;40.15;26.42;;;6.00;99.90;;;;;;5117678;28;20031;-74
2023/01/31 05:36:45;;;;;;;40.65;23.80;;;6.10;99.90;;;;;;5117324;28;20040;-73
2023/01/31 05:39:11;;;;;;;46.45;24.00;;;6.10;99.90;;;;;;5117670;28;20036;-73
2023/01/31 05:41:36;;;;;;;43.00;22.25;;;6.20;99.90;;;;;;5117330;28;20042;-73
2023/01/31 05:44:03;;;;;;;39.88;19.42;;;6.20;99.90;;;;;;5117491;28;20091;-73
2023/01/31 05:46:28;;;;;;;50.08;19.60;;;6.10;99.90;;;;;;5117638;28;20104;-74
2023/01/31 05:48:54;;;;;;;34.78;19.90;;;6.20;99.90;;;;;;5117236;28;20043;-73
2023/01/31 05:51:20;;;;;;;37.22;18.70;;;6.30;99.90;;;;;;5117500;28;20123;-73
2023/01/31 05:53:47;;;;;;;43.00;18.25;;;6.30;99.90;;;;;;5117512;28;20386;-73
2023/01/31 05:56:13;;;;;;;38.75;16.52;;;6.30;99.90;;;;;;5117389;28;20043;-73
2023/01/31 05:58:39;;;;;;;38.85;16.70;;;6.40;99.90;;;;;;5117396;28;20105;-73
2023/01/31 06:01:04;;;;;;;37.97;15.85;;;6.40;99.90;;;;;;5117348;28;20043;-73
2023/01/31 06:03:30;;;;;;;40.03;16.00;;;6.40;99.90;;;;;;5117413;28;20038;-74
2023/01/31 06:05:56;;;;;;;37.05;15.70;;;6.40;99.90;;;;;;5117403;28;20039;-73
2023/01/31 06:08:21;;;;;;;36.78;15.23;;;6.40;99.90;;;;;;5116863;28;20047;-73
2023/01/31 06:10:47;;;;;;;41.35;16.20;;;6.50;99.90;;;;;;5117009;28;20046;-73
2023/01/31 06:13:13;;;;;;;34.17;16.95;;;6.50;99.90;;;;;;5117298;28;20036;-73
2023/01/31 06:15:42;;;;;;;40.22;19.83;;;6.50;99.90;;;;;;5117201;28;20040;-73
2023/01/31 06:18:08;;;;;;;34.92;19.27;;;6.50;99.90;;;;;;5117261;28;20036;-74
2023/01/31 06:20:34;;;;;;;42.30;19.33;;;6.60;99.90;;;;;;5117204;28;20042;-73
2023/01/31 06:23:00;;;;;;;52.00;19.17;;;6.60;99.90;;;;;;5116201;28;20435;-73
2023/01/31 06:25:26;;;;;;;47.95;19.23;;;6.50;99.90;;;;;;5116907;28;20451;-73
2023/01/31 06:27:54;;;;;;;38.75;17.10;;;6.50;99.90;;;;;;5116907;28;20039;-73
2023/01/31 06:30:20;;;;;;;34.08;17.17;;;6.50;99.90;;;;;;5117092;28;20036;-74
2023/01/31 06:32:45;;;;;;;38.65;17.42;;;6.50;99.90;;;;;;5116164;28;20042;-73
2023/01/31 06:35:11;;;;;;;41.95;19.35;;;6.50;99.90;;;;;;5116960;28;20049;-73
2023/01/31 06:37:37;;;;;;;44.58;18.40;;;6.60;99.90;;;;;;5116368;28;20110;-73
2023/01/31 06:40:03;;;;;;;46.58;19.23;;;6.50;99.90;;;;;;5117057;28;20086;-73
2023/01/31 06:42:28;;;;;;;39.83;19.38;;;6.50;99.90;;;;;;5116985;28;20111;-73
2023/01/31 06:44:54;;;;;;;47.28;19.13;;;6.60;99.90;;;;;;5118309;28;20402;-73
2023/01/31 06:47:20;;;;;;;39.63;18.85;;;6.40;99.90;;;;;;5120689;28;20054;-73
2023/01/31 06:49:45;;;;;;;41.78;19.08;;;6.30;99.90;;;;;;5120932;28;20040;-73
2023/01/31 06:52:11;;;;;;;36.70;20.02;;;6.40;99.90;;;;;;5119927;28;20040;-73
2023/01/31 06:54:37;;;;;;;42.67;19.92;;;6.40;99.90;;;;;;5119685;28;20048;-73
2023/01/31 06:57:02;;;;;;;45.72;19.65;;;6.40;99.90;;;;;;5119721;28;20041;-73
2023/01/31 06:59:28;;;;;;;43.15;19.17;;;6.40;99.90;;;;;;5120740;28;20036;-73
2023/01/31 07:01:54;;;;;;;40.88;20.88;;;6.40;99.90;;;;;;5120701;28;20032;-74
2023/01/31 07:04:19;;;;;;;42.58;20.42;;;6.40;99.90;;;;;;5120677;27;20505;-74
2023/01/31 07:06:45;;;;;;;35.55;20.30;;;6.50;99.90;;;;;;5120199;28;20034;-74
2023/01/31 07:09:11;;;;;;;42.42;22.15;;;6.50;99.90;;;;;;5120533;28;20324;-73
2023/01/31 07:11:37;;;;;;;33.15;22.70;;;6.50;99.90;;;;;;5120537;28;20152;-73
2023/01/31 07:14:03;;;;;;;32.90;20.60;;;6.50;99.90;;;;;;5120447;28;20032;-73
2023/01/31 07:16:30;;;;;;;36.38;21.92;;;6.50;99.90;;;;;;5120431;28;20447;-73
2023/01/31 07:18:55;;;;;;;47.58;21.08;;;6.50;99.90;;;;;;5120369;28;20047;-73
2023/01/31 07:21:22;;;;;;;38.50;19.13;;;6.50;99.90;;;;;;5120270;28;20100;-73
2023/01/31 07:23:49;;;;;;;39.42;17.77;;;6.50;99.90;;;;;;5120286;28;20036;-73
2023/01/31 07:26:15;;;;;;;38.63;18.63;;;6.50;99.90;;;;;;5120059;28;20101;-73
2023/01/31 07:28:41;;;;;;;40.50;18.20;;;6.50;99.90;;;;;;5119831;28;20047;-73
2023/01/31 07:31:10;;;;;;;40.90;17.17;;;6.50;99.90;;;;;;5120137;27;20035;-73
2023/01/31 07:33:37;;;;;;;38.75;18.20;;;6.50;99.90;;;;;;5120029;28;20050;-74
2023/01/31 07:36:04;;;;;;;39.05;18.70;;;6.50;99.90;;;;;;5119941;28;20096;-74
2023/01/31 07:38:31;;;;;;;39.60;15.88;;;6.60;99.90;;;;;;5119264;28;20043;-74
2023/01/31 07:41:02;;;;;;;42.08;16.95;;;6.50;99.90;;;;;;5119974;28;20048;-74
2023/01/31 07:43:28;;;;;;;40.85;15.75;;;6.50;99.90;;;;;;5119878;28;20104;-73
2023/01/31 07:45:54;;;;;;;36.35;15.30;;;6.50;99.90;;;;;;5119244;28;20082;-74
2023/01/31 07:48:22;;;;;;;36.47;15.35;;;6.50;99.90;;;;;;5120058;28;20439;-74
2023/01/31 07:50:59;;;;;;;30.33;16.10;;;6.50;99.90;;;;;;5119490;27;20044;-74
2023/01/31 07:53:28;;;;;;;30.60;15.88;;;6.60;99.90;;;;;;5119711;28;20043;-74
2023/01/31 07:55:54;;;;;;;30.33;15.02;;;6.60;99.90;;;;;;5119152;28;20035;-73
2023/01/31 07:58:19;;;;;;;37.67;16.15;;;6.60;99.90;;;;;;5119631;28;20036;-73
2023/01/31 08:03:46;;;;;;;28.88;16.67;;;6.60;99.90;;;;;;5096850;28;20071;-74
2023/01/31 08:06:12;;;;;;;35.33;17.13;;;6.60;99.90;;;;;;5114493;28;20083;-74
2023/01/31 08:08:40;;;;;;;27.25;16.77;;;6.60;99.90;;;;;;5118759;28;20040;-73
2023/01/31 08:11:05;;;;;;;35.88;16.48;;;6.50;99.90;;;;;;5119361;28;20036;-73
2023/01/31 08:13:32;;;;;;;25.85;15.75;;;6.60;99.90;;;;;;5119318;28;20425;-73
2023/01/31 08:15:58;;;;;;;28.80;15.27;;;6.60;99.90;;;;;;5119235;28;20119;-74
2023/01/31 08:18:24;;;;;;;29.30;15.38;;;6.70;99.90;;;;;;5117899;28;20174;-74
2023/01/31 08:20:50;;;;;;;24.42;13.52;;;6.80;99.90;;;;;;5118870;28;20040;-74
2023/01/31 08:23:16;;;;;;;25.02;14.23;;;6.80;99.90;;;;;;5118839;28;20042;-73
2023/01/31 08:25:42;;;;;;;23.48;14.23;;;6.80;99.90;;;;;;5119069;28;20075;-73
2023/01/31 08:28:08;;;;;;;33.85;14.20;;;6.80;99.90;;;;;;5119030;28;20044;-74
2023/01/31 08:30:37;;;;;;;24.95;13.93;;;6.80;99.90;;;;;;5118959;28;20085;-74
2023/01/31 08:33:03;;;;;;;28.80;14.77;;;6.80;99.90;;;;;;5118992;28;20341;-73
2023/01/31 08:35:29;;;;;;;24.10;14.50;;;6.80;99.90;;;;;;5118531;28;20039;-74
2023/01/31 08:37:54;;;;;;;33.70;14.98;;;6.80;99.90;;;;;;5118025;28;20413;-73
2023/01/31 08:40:20;;;;;;;28.80;15.80;;;6.80;99.90;;;;;;5117636;28;20110;-72
2023/01/31 08:42:59;;;;;;;25.05;15.35;;;6.90;99.90;;;;;;5116830;28;20043;-73
2023/01/31 08:45:26;;;;;;;28.25;14.80;;;6.90;99.90;;;;;;5118301;28;20060;-72
2023/01/31 08:47:57;;;;;;;34.70;16.75;;;7.00;99.90;;;;;;5118278;28;20447;-71
2023/01/31 08:50:24;;;;;;;26.67;16.10;;;7.00;99.90;;;;;;5118655;28;20044;-70
2023/01/31 08:52:55;;;;;;;27.58;14.40;;;7.00;99.90;;;;;;5118222;28;20425;-70
2023/01/31 08:55:22;;;;;;;38.08;16.50;;;7.00;99.90;;;;;;5118084;28;20118;-71
2023/01/31 08:57:49;;;;;;;28.48;15.30;;;7.00;99.90;;;;;;5118248;28;20433;-70
2023/01/31 09:00:16;;;;;;;33.47;15.73;;;7.00;99.90;;;;;;5118399;28;20043;-70
2023/01/31 09:02:45;;;;;;;35.38;15.88;;;7.10;99.90;;;;;;5118372;28;20066;-70
2023/01/31 09:05:11;;;;;;;33.22;14.60;;;7.10;99.90;;;;;;5118226;28;20043;-71
2023/01/31 09:07:37;;;;;;;24.73;13.90;;;7.10;99.90;;;;;;5117323;28;20069;-70
2023/01/31 09:10:03;;;;;;;31.90;15.73;;;7.20;99.90;;;;;;5117836;28;20039;-70
2023/01/31 09:12:29;;;;;;;24.58;13.50;;;7.10;99.90;;;;;;5118156;27;20052;-70
2023/01/31 09:14:55;;;;;;;24.02;13.88;;;7.10;99.90;;;;;;5118017;28;20039;-70
2023/01/31 09:17:21;;;;;;;25.10;12.68;;;7.20;99.90;;;;;;5118068;28;20036;-70
2023/01/31 09:19:47;;;;;;;28.13;13.20;;;7.10;99.90;;;;;;5118005;28;20036;-70
2023/01/31 09:22:13;;;;;;;24.73;13.30;;;7.10;99.90;;;;;;5117962;28;20040;-70
2023/01/31 09:24:39;;;;;;;27.88;13.65;;;7.10;99.90;;;;;;5117659;28;20049;-70
2023/01/31 09:27:04;;;;;;;30.80;12.50;;;7.20;99.90;;;;;;5117912;28;20122;-69
2023/01/31 09:29:30;;;;;;;27.45;14.27;;;7.20;99.90;;;;;;5116811;28;20047;-69
2023/01/31 09:31:56;;;;;;;28.08;13.45;;;7.20;99.90;;;;;;5116711;28;20058;-69
2023/01/31 09:34:22;;;;;;;33.20;13.60;;;7.30;99.90;;;;;;5117682;28;20082;-70
2023/01/31 09:36:48;;;;;;;24.15;13.75;;;7.20;99.90;;;;;;5117438;28;20032;-71
2023/01/31 09:39:13;;;;;;;27.42;13.48;;;7.30;99.90;;;;;;5117310;27;20063;-70
2023/01/31 09:41:54;;;;;;;24.20;13.70;;;7.30;99.90;;;;;;5117579;28;20044;-70
2023/01/31 09:44:41;;;;;;;30.50;14.40;;;7.30;99.90;;;;;;5116279;28;20317;-71
2023/01/31 09:47:27;;;;;;;30.70;15.73;;;7.30;99.90;;;;;;5117336;28;20043;-70
2023/01/31 09:49:59;;;;;;;24.67;15.35;;;7.30;99.90;;;;;;5116286;28;20063;-70
2023/01/31 09:52:27;;;;;;;25.90;15.13;;;7.30;99.90;;;;;;5117439;28;20036;-70
2023/01/31 09:54:53;;;;;;;30.75;15.85;;;7.30;99.90;;;;;;5117407;28;20127;-71
2023/01/31 09:57:48;;;;;;;31.27;15.90;;;7.40;99.90;;;;;;5117455;28;20046;-70
2023/01/31 10:00:32;;;;;;;32.65;16.48;;;7.40;99.90;;;;;;5112558;28;20104;-70
2023/01/31 10:03:34;;;;;;;28.58;17.10;;;7.30;99.90;;;;;;5116391;28;20039;-71
2023/01/31 10:06:24;;;;;;;24.45;14.90;;;7.40;99.90;;;;;;5117050;28;20429;-70
2023/01/31 10:08:50;;;;;;;24.75;12.77;;;7.40;99.90;;;;;;5116956;28;20118;-71
2023/01/31 10:11:37;;;;;;;34.13;14.75;;;7.40;99.90;;;;;;5117279;28;20403;-71
2023/01/31 10:14:36;;;;;;;31.45;16.65;;;7.50;99.90;;;;;;5117205;28;20079;-71
2023/01/31 10:17:21;;;;;;;33.78;16.42;;;7.50;99.90;;;;;;5117264;28;20059;-70
2023/01/31 10:19:52;;;;;;;26.25;16.85;;;7.50;99.90;;;;;;5119844;28;20126;-71
2023/01/31 10:22:44;;;;;;;33.15;17.50;;;7.60;99.90;;;;;;5121451;28;20056;-70
2023/01/31 10:25:25;;;;;;;37.70;19.17;;;7.60;99.90;;;;;;5121399;28;20126;-70
2023/01/31 10:27:56;;;;;;;32.95;23.30;;;7.50;99.90;;;;;;5121403;28;20046;-69
2023/01/31 10:30:30;;;;;;;40.28;26.20;;;7.40;99.90;;;;;;5121340;28;20086;-70
2023/01/31 10:33:09;;;;;;;33.15;28.88;;;7.40;99.90;;;;;;5121607;28;20417;-69
2023/01/31 10:35:42;;;;;;;37.05;31.80;;;7.50;99.90;;;;;;5121190;28;20195;-70
2023/01/31 10:38:18;;;;;;;36.83;32.67;;;7.40;99.90;;;;;;5120492;28;20501;-70
2023/01/31 10:40:49;;;;;;;42.43;37.90;;;7.30;99.90;;;;;;5121202;28;20039;-69
2023/01/31 10:43:33;;;;;;;40.90;35.42;;;7.40;99.90;;;;;;5121132;28;20430;-70
2023/01/31 10:46:07;;;;;;;44.33;38.25;;;7.30;99.90;;;;;;5120667;27;20127;-70
2023/01/31 10:48:34;;;;;;;42.97;38.80;;;7.30;99.90;;;;;;5120650;28;20435;-70
2023/01/31 10:51:26;;;;;;;45.20;39.83;;;7.20;99.90;;;;;;5120932;28;20318;-69
2023/01/31 10:54:19;;;;;;;47.10;42.05;;;7.30;99.90;;;;;;5120883;28;20047;-70
2023/01/31 10:56:48;;;;;;;54.15;42.40;;;7.40;99.90;;;;;;5120482;27;20079;-70
2023/01/31 10:59:31;;;;;;;47.05;42.25;;;7.30;99.90;;;;;;5120416;28;20031;-73
2023/01/31 11:01:58;;;;;;;48.65;42.80;;;7.30;99.90;;;;;;5102387;28;20071;-69
2023/01/31 11:04:51;;;;;;;48.38;42.67;;;7.40;99.90;;;;;;5120613;28;20046;-70
2023/01/31 11:07:17;;;;;;;47.42;42.80;;;7.40;99.90;;;;;;5118203;28;20048;-70
2023/01/31 11:09:48;;;;;;;48.30;43.60;;;7.40;99.90;;;;;;5120220;28;20126;-69
2023/01/31 11:12:14;;;;;;;47.92;42.85;;;7.40;99.90;;;;;;5119188;28;20089;-70
2023/01/31 11:14:40;;;;;;;51.13;43.13;;;7.40;99.90;;;;;;5120377;28;20035;-69
2023/01/31 11:17:14;;;;;;;45.63;41.22;;;7.40;99.90;;;;;;5120424;28;20070;-70
2023/01/31 11:19:51;;;;;;;46.75;41.85;;;7.30;99.90;;;;;;5120028;28;20043;-72
2023/01/31 11:22:36;;;;;;;46.95;41.58;;;7.40;99.90;;;;;;5120365;28;20047;-70
2023/01/31 11:25:03;;;;;;;43.38;39.17;;;7.40;99.90;;;;;;5119952;28;20433;-70
2023/01/31 11:27:36;;;;;;;44.53;40.03;;;7.40;99.90;;;;;;5120247;28;20054;-70
2023/01/31 11:30:05;;;;;;;48.65;40.53;;;7.40;99.90;;;;;;5119645;28;20039;-70
2023/01/31 11:32:35;;;;;;;50.28;41.30;;;7.50;99.90;;;;;;5119801;28;20420;-70
2023/01/31 11:35:11;;;;;;;51.20;41.70;;;7.50;99.90;;;;;;5120008;28;20040;-70
2023/01/31 11:37:49;;;;;;;46.03;41.80;;;7.60;99.90;;;;;;5119918;28;20036;-70
2023/01/31 11:40:14;;;;;;;47.42;42.30;;;7.60;99.90;;;;;;5120024;28;20070;-70
2023/01/31 11:42:54;;;;;;;43.95;39.97;;;7.50;99.90;;;;;;5119922;28;20075;-69
2023/01/31 11:45:27;;;;;;;57.25;39.85;;;7.50;99.90;;;;;;5119586;28;20068;-69
2023/01/31 11:48:13;;;;;;;53.20;40.00;;;7.60;99.90;;;;;;5119564;28;20443;-70
2023/01/31 11:50:43;;;;;;;44.88;39.00;;;7.60;99.90;;;;;;5118995;28;20130;-70
2023/01/31 11:53:39;;;;;;;47.88;37.63;;;7.60;99.90;;;;;;5119729;28;20058;-70
2023/01/31 11:56:19;;;;;;;49.90;37.17;;;7.70;99.90;;;;;;5119314;28;20443;-70
2023/01/31 11:58:47;;;;;;;52.53;38.03;;;7.60;99.90;;;;;;5119348;28;20035;-70
2023/01/31 12:01:15;;;;;;;45.95;38.70;;;7.70;99.90;;;;;;5119551;28;20042;-70
2023/01/31 12:03:52;;;;;;;44.15;38.05;;;7.80;99.90;;;;;;5119538;28;20039;-70
2023/01/31 12:06:28;;;;;;;;;;;7.90;99.90;;;;;;5118698;28;20337;-70
2023/01/31 12:08:56;;;;;;;53.65;39.22;;;7.90;99.90;;;;;;5117882;28;19923;-71
2023/01/31 12:11:30;;;;;;;47.35;38.20;;;7.90;99.90;;;;;;5119509;28;20290;-70
2023/01/31 12:14:15;;;;;;;53.45;37.45;;;7.90;99.90;;;;;;5119328;28;20036;-70
2023/01/31 12:16:42;;;;;;;51.28;34.83;;;7.90;99.90;;;;;;5119156;27;20079;-68
2023/01/31 12:19:10;;;;;;;52.03;37.03;;;7.90;99.90;;;;;;5118934;28;20039;-67
2023/01/31 12:22:02;;;;;;;42.22;32.83;;;7.90;99.90;;;;;;5119161;28;20036;-69
2023/01/31 12:24:46;;;;;;;48.40;30.95;;;8.00;99.90;;;;;;5119242;28;20035;-67
2023/01/31 12:27:36;;;;;;;35.13;29.55;;;8.30;99.90;;;;;;5119034;28;20035;-68
2023/01/31 12:30:18;;;;;;;41.35;26.30;;;8.40;99.90;;;;;;5119040;28;20031;-68
2023/01/31 12:32:56;;;;;;;31.98;21.70;;;8.40;99.90;;;;;;5119018;28;20070;-68
2023/01/31 12:35:49;;;;;;;31.50;20.50;;;8.40;99.90;;;;;;5118797;28;20302;-68
2023/01/31 12:38:43;;;;;;;32.28;20.17;;;8.40;99.90;;;;;;5118484;28;20035;-67
2023/01/31 12:41:27;;;;;;;41.28;21.92;;;8.40;99.90;;;;;;5100792;28;20510;-68
2023/01/31 12:44:11;;;;;;;31.65;19.52;;;8.50;99.90;;;;;;5098186;28;20040;-68
2023/01/31 12:46:45;;;;;;;31.98;17.60;;;8.60;99.90;;;;;;5098572;28;20047;-68
2023/01/31 12:49:55;;;;;;;33.25;15.88;;;8.60;99.90;;;;;;5101574;28;20122;-69
2023/01/31 12:52:47;;;;;;;27.40;15.50;;;8.60;99.90;;;;;;5068740;28;20044;-68
2023/01/31 12:55:42;;;;;;;34.17;16.73;;;8.70;99.90;;;;;;5055702;28;20124;-68
2023/01/31 12:58:29;;;;;;;39.30;17.98;;;8.70;99.90;;;;;;5105546;28;20043;-71
2023/01/31 13:00:54;;;;;;;;;;;8.80;99.90;;;;;;5118762;28;20043;-68
2023/01/31 13:03:58;;;;;;;32.73;18.10;;;8.90;99.90;;;;;;5117388;28;20193;-70
2023/01/31 13:06:36;;;;;;;33.05;16.92;;;8.90;99.90;;;;;;5075218;28;20044;-70
2023/01/31 13:09:22;;;;;;;29.77;14.52;;;8.90;99.90;;;;;;5074676;28;20492;-72